sensor_id;sensor_type;location;lat;lon;timestamp;P1;durP1;ratioP1;P2;durP2;ratioP2
42614;SDS011;28754;47.700;7.924;2023-02-28T00:00:13;6.80;;;4.77;;
42614;SDS011;28754;47.700;7.924;2023-02-28T00:03:00;6.57;;;4.60;;
42614;SDS011;28754;47.700;7.924;2023-02-28T00:05:47;6.57;;;4.40;;
42614;SDS011;28754;47.700;7.924;2023-02-28T00:08:34;8.20;;;4.97;;
42614;SDS011;28754;47.700;7.924;2023-02-28T00:11:21;8.30;;;5.03;;
42614;SDS011;28754;47.700;7.924;2023-02-28T00:14:08;10.13;;;4.77;;
42614;SDS011;28754;47.700;7.924;2023-02-28T00:16:55;7.40;;;4.20;;
42614;SDS011;28754;47.700;7.924;2023-02-28T00:19:41;7.70;;;3.80;;
42614;SDS011;28754;47.700;7.924;2023-02-28T00:22:28;7.63;;;5.50;;
42614;SDS011;28754;47.700;7.924;2023-02-28T00:25:16;7.47;;;4.67;;
42614;SDS011;28754;47.700;7.924;2023-02-28T00:28:06;6.73;;;4.73;;
42614;SDS011;28754;47.700;7.924;2023-02-28T00:30:53;11.40;;;5.87;;
42614;SDS011;28754;47.700;7.924;2023-02-28T00:33:40;11.60;;;5.07;;
42614;SDS011;28754;47.700;7.924;2023-02-28T00:36:26;5.67;;;4.40;;
42614;SDS011;28754;47.700;7.924;2023-02-28T00:39:13;8.70;;;5.03;;
42614;SDS011;28754;47.700;7.924;2023-02-28T00:42:00;7.77;;;4.63;;
42614;SDS011;28754;47.700;7.924;2023-02-28T00:44:48;6.93;;;4.57;;
42614;SDS011;28754;47.700;7.924;2023-02-28T00:47:34;8.70;;;5.40;;
42614;SDS011;28754;47.700;7.924;2023-02-28T00:50:21;11.73;;;6.10;;
42614;SDS011;28754;47.700;7.924;2023-02-28T00:53:08;6.30;;;4.87;;
42614;SDS011;28754;47.700;7.924;2023-02-28T00:55:55;6.77;;;5.17;;
42614;SDS011;28754;47.700;7.924;2023-02-28T00:58:41;7.80;;;6.27;;
42614;SDS011;28754;47.700;7.924;2023-02-28T01:01:28;7.20;;;5.20;;
42614;SDS011;28754;47.700;7.924;2023-02-28T01:04:15;6.57;;;5.07;;
42614;SDS011;28754;47.700;7.924;2023-02-28T01:07:01;7.33;;;5.33;;
42614;SDS011;28754;47.700;7.924;2023-02-28T01:09:48;8.23;;;6.57;;
42614;SDS011;28754;47.700;7.924;2023-02-28T01:12:35;8.57;;;6.03;;
42614;SDS011;28754;47.700;7.924;2023-02-28T01:15:21;8.20;;;5.63;;
42614;SDS011;28754;47.700;7.924;2023-02-28T01:18:08;13.07;;;5.27;;
42614;SDS011;28754;47.700;7.924;2023-02-28T01:20:55;7.87;;;5.97;;
42614;SDS011;28754;47.700;7.924;2023-02-28T01:23:42;6.77;;;5.17;;
42614;SDS011;28754;47.700;7.924;2023-02-28T01:26:30;7.37;;;4.77;;
42614;SDS011;28754;47.700;7.924;2023-02-28T01:29:17;7.90;;;5.97;;
42614;SDS011;28754;47.700;7.924;2023-02-28T01:32:05;7.17;;;5.90;;
42614;SDS011;28754;47.700;7.924;2023-02-28T01:34:52;9.57;;;6.30;;
42614;SDS011;28754;47.700;7.924;2023-02-28T01:37:38;12.83;;;5.90;;
42614;SDS011;28754;47.700;7.924;2023-02-28T01:40:25;9.20;;;5.83;;
42614;SDS011;28754;47.700;7.924;2023-02-28T01:43:23;8.90;;;5.73;;
42614;SDS011;28754;47.700;7.924;2023-02-28T01:46:16;7.47;;;6.20;;
42614;SDS011;28754;47.700;7.924;2023-02-28T01:49:11;6.87;;;5.70;;
42614;SDS011;28754;47.700;7.924;2023-02-28T01:52:02;7.30;;;5.80;;
42614;SDS011;28754;47.700;7.924;2023-02-28T01:54:50;7.23;;;5.50;;
42614;SDS011;28754;47.700;7.924;2023-02-28T01:57:43;8.40;;;5.63;;
42614;SDS011;28754;47.700;7.924;2023-02-28T02:00:40;10.90;;;6.43;;
42614;SDS011;28754;47.700;7.924;2023-02-28T02:03:30;8.43;;;5.90;;
42614;SDS011;28754;47.700;7.924;2023-02-28T02:06:17;8.37;;;5.37;;
42614;SDS011;28754;47.700;7.924;2023-02-28T02:09:05;7.23;;;5.13;;
42614;SDS011;28754;47.700;7.924;2023-02-28T02:11:52;9.87;;;5.53;;
42614;SDS011;28754;47.700;7.924;2023-02-28T02:17:52;7.77;;;5.43;;
42614;SDS011;28754;47.700;7.924;2023-02-28T02:27:16;7.70;;;5.73;;
42614;SDS011;28754;47.700;7.924;2023-02-28T02:40:29;9.03;;;6.70;;
42614;SDS011;28754;47.700;7.924;2023-02-28T02:43:34;7.37;;;5.63;;
42614;SDS011;28754;47.700;7.924;2023-02-28T02:46:38;8.17;;;6.03;;
42614;SDS011;28754;47.700;7.924;2023-02-28T02:49:36;9.63;;;6.17;;
42614;SDS011;28754;47.700;7.924;2023-02-28T02:52:30;10.17;;;6.17;;
42614;SDS011;28754;47.700;7.924;2023-02-28T02:55:27;9.47;;;6.50;;
42614;SDS011;28754;47.700;7.924;2023-02-28T02:58:16;9.30;;;6.47;;
42614;SDS011;28754;47.700;7.924;2023-02-28T03:01:06;11.83;;;6.53;;
42614;SDS011;28754;47.700;7.924;2023-02-28T03:04:02;9.03;;;6.53;;
42614;SDS011;28754;47.700;7.924;2023-02-28T03:09:49;10.80;;;6.87;;
42614;SDS011;28754;47.700;7.924;2023-02-28T03:12:44;14.47;;;6.80;;
42614;SDS011;28754;47.700;7.924;2023-02-28T03:26:31;8.90;;;7.43;;
42614;SDS011;28754;47.700;7.924;2023-02-28T03:29:39;6.05;;;4.45;;
42614;SDS011;28754;47.700;7.924;2023-02-28T03:32:35;12.67;;;7.20;;
42614;SDS011;28754;47.700;7.924;2023-02-28T03:35:39;11.52;;;6.47;;
42614;SDS011;28754;47.700;7.924;2023-02-28T03:41:42;11.20;;;7.50;;
42614;SDS011;28754;47.700;7.924;2023-02-28T03:44:42;7.27;;;6.07;;
42614;SDS011;28754;47.700;7.924;2023-02-28T03:47:45;11.60;;;7.23;;
42614;SDS011;28754;47.700;7.924;2023-02-28T03:50:53;9.50;;;7.45;;
42614;SDS011;28754;47.700;7.924;2023-02-28T03:53:53;11.43;;;7.17;;
42614;SDS011;28754;47.700;7.924;2023-02-28T03:56:51;11.63;;;6.40;;
42614;SDS011;28754;47.700;7.924;2023-02-28T04:00:08;9.57;;;7.63;;
42614;SDS011;28754;47.700;7.924;2023-02-28T04:03:03;9.43;;;6.87;;
42614;SDS011;28754;47.700;7.924;2023-02-28T04:05:52;10.13;;;6.93;;
42614;SDS011;28754;47.700;7.924;2023-02-28T04:08:41;8.33;;;6.53;;
42614;SDS011;28754;47.700;7.924;2023-02-28T04:14:47;9.87;;;7.33;;
42614;SDS011;28754;47.700;7.924;2023-02-28T04:17:34;13.03;;;7.90;;
42614;SDS011;28754;47.700;7.924;2023-02-28T04:20:20;9.57;;;7.47;;
42614;SDS011;28754;47.700;7.924;2023-02-28T04:23:07;9.90;;;8.30;;
42614;SDS011;28754;47.700;7.924;2023-02-28T04:25:54;10.60;;;8.03;;
42614;SDS011;28754;47.700;7.924;2023-02-28T04:28:41;9.63;;;7.43;;
42614;SDS011;28754;47.700;7.924;2023-02-28T04:31:28;13.10;;;8.00;;
42614;SDS011;28754;47.700;7.924;2023-02-28T04:34:15;9.67;;;7.40;;
42614;SDS011;28754;47.700;7.924;2023-02-28T04:37:02;11.60;;;7.60;;
42614;SDS011;28754;47.700;7.924;2023-02-28T04:39:49;10.47;;;7.83;;
42614;SDS011;28754;47.700;7.924;2023-02-28T04:42:36;13.03;;;8.37;;
42614;SDS011;28754;47.700;7.924;2023-02-28T04:45:22;12.73;;;8.27;;
42614;SDS011;28754;47.700;7.924;2023-02-28T04:48:09;10.97;;;8.27;;
42614;SDS011;28754;47.700;7.924;2023-02-28T04:50:59;11.63;;;8.37;;
42614;SDS011;28754;47.700;7.924;2023-02-28T04:53:49;11.33;;;8.30;;
42614;SDS011;28754;47.700;7.924;2023-02-28T04:56:36;13.90;;;7.33;;
42614;SDS011;28754;47.700;7.924;2023-02-28T04:59:22;11.97;;;7.83;;
42614;SDS011;28754;47.700;7.924;2023-02-28T05:02:09;10.47;;;8.10;;
42614;SDS011;28754;47.700;7.924;2023-02-28T05:05:01;11.57;;;7.87;;
42614;SDS011;28754;47.700;7.924;2023-02-28T05:07:48;12.70;;;8.77;;
42614;SDS011;28754;47.700;7.924;2023-02-28T05:10:35;11.53;;;8.17;;
42614;SDS011;28754;47.700;7.924;2023-02-28T05:13:22;12.87;;;9.07;;
42614;SDS011;28754;47.700;7.924;2023-02-28T05:16:09;11.50;;;7.83;;
42614;SDS011;28754;47.700;7.924;2023-02-28T05:18:56;12.17;;;8.70;;
42614;SDS011;28754;47.700;7.924;2023-02-28T05:21:49;10.93;;;9.13;;
42614;SDS011;28754;47.700;7.924;2023-02-28T05:24:39;11.07;;;8.13;;
42614;SDS011;28754;47.700;7.924;2023-02-28T05:27:28;11.67;;;8.37;;
42614;SDS011;28754;47.700;7.924;2023-02-28T05:30:14;12.40;;;8.23;;
42614;SDS011;28754;47.700;7.924;2023-02-28T05:33:01;10.53;;;7.67;;
42614;SDS011;28754;47.700;7.924;2023-02-28T05:35:48;15.27;;;8.87;;
42614;SDS011;28754;47.700;7.924;2023-02-28T05:38:35;10.03;;;7.07;;
42614;SDS011;28754;47.700;7.924;2023-02-28T05:41:21;10.97;;;7.80;;
42614;SDS011;28754;47.700;7.924;2023-02-28T05:44:08;12.63;;;7.57;;
42614;SDS011;28754;47.700;7.924;2023-02-28T05:46:56;12.80;;;8.87;;
42614;SDS011;28754;47.700;7.924;2023-02-28T05:49:42;12.23;;;8.53;;
42614;SDS011;28754;47.700;7.924;2023-02-28T05:52:29;16.27;;;9.97;;
42614;SDS011;28754;47.700;7.924;2023-02-28T05:55:16;11.63;;;8.23;;
42614;SDS011;28754;47.700;7.924;2023-02-28T05:58:03;12.13;;;8.77;;
42614;SDS011;28754;47.700;7.924;2023-02-28T06:00:49;14.13;;;9.93;;
42614;SDS011;28754;47.700;7.924;2023-02-28T06:03:36;13.03;;;8.80;;
42614;SDS011;28754;47.700;7.924;2023-02-28T06:06:23;12.13;;;8.50;;
42614;SDS011;28754;47.700;7.924;2023-02-28T06:09:09;12.97;;;9.07;;
42614;SDS011;28754;47.700;7.924;2023-02-28T06:12:00;9.13;;;7.23;;
42614;SDS011;28754;47.700;7.924;2023-02-28T06:14:55;11.90;;;8.03;;
42614;SDS011;28754;47.700;7.924;2023-02-28T06:17:45;12.27;;;8.47;;
42614;SDS011;28754;47.700;7.924;2023-02-28T06:20:34;12.77;;;7.93;;
42614;SDS011;28754;47.700;7.924;2023-02-28T06:23:22;13.10;;;8.70;;
42614;SDS011;28754;47.700;7.924;2023-02-28T06:26:16;12.80;;;8.20;;
42614;SDS011;28754;47.700;7.924;2023-02-28T06:29:08;12.70;;;9.03;;
42614;SDS011;28754;47.700;7.924;2023-02-28T06:31:57;15.90;;;9.63;;
42614;SDS011;28754;47.700;7.924;2023-02-28T06:34:49;14.40;;;10.20;;
42614;SDS011;28754;47.700;7.924;2023-02-28T06:37:36;12.13;;;8.50;;
42614;SDS011;28754;47.700;7.924;2023-02-28T06:40:23;11.23;;;8.47;;
42614;SDS011;28754;47.700;7.924;2023-02-28T06:43:10;12.77;;;9.37;;
42614;SDS011;28754;47.700;7.924;2023-02-28T06:46:00;12.43;;;8.53;;
42614;SDS011;28754;47.700;7.924;2023-02-28T06:48:49;11.73;;;9.60;;
42614;SDS011;28754;47.700;7.924;2023-02-28T06:51:37;12.70;;;9.17;;
42614;SDS011;28754;47.700;7.924;2023-02-28T06:54:27;13.63;;;8.27;;
42614;SDS011;28754;47.700;7.924;2023-02-28T06:57:14;15.93;;;10.23;;
42614;SDS011;28754;47.700;7.924;2023-02-28T07:00:02;14.30;;;10.20;;
42614;SDS011;28754;47.700;7.924;2023-02-28T07:02:53;13.33;;;9.47;;
42614;SDS011;28754;47.700;7.924;2023-02-28T07:05:40;13.03;;;8.53;;
42614;SDS011;28754;47.700;7.924;2023-02-28T07:08:28;12.93;;;9.30;;
42614;SDS011;28754;47.700;7.924;2023-02-28T07:11:15;14.03;;;9.37;;
42614;SDS011;28754;47.700;7.924;2023-02-28T07:14:02;13.27;;;9.03;;
42614;SDS011;28754;47.700;7.924;2023-02-28T07:16:48;12.63;;;9.00;;
42614;SDS011;28754;47.700;7.924;2023-02-28T07:19:36;12.67;;;8.50;;
42614;SDS011;28754;47.700;7.924;2023-02-28T07:22:23;16.60;;;9.37;;
42614;SDS011;28754;47.700;7.924;2023-02-28T07:25:10;10.20;;;7.87;;
42614;SDS011;28754;47.700;7.924;2023-02-28T07:27:57;11.77;;;9.23;;
42614;SDS011;28754;47.700;7.924;2023-02-28T07:30:45;11.37;;;8.47;;
42614;SDS011;28754;47.700;7.924;2023-02-28T07:33:32;13.13;;;9.37;;
42614;SDS011;28754;47.700;7.924;2023-02-28T07:36:19;12.77;;;8.03;;
42614;SDS011;28754;47.700;7.924;2023-02-28T07:39:06;15.57;;;8.70;;
42614;SDS011;28754;47.700;7.924;2023-02-28T07:41:56;11.90;;;9.43;;
42614;SDS011;28754;47.700;7.924;2023-02-28T07:44:46;14.37;;;9.80;;
42614;SDS011;28754;47.700;7.924;2023-02-28T07:47:32;15.20;;;9.63;;
42614;SDS011;28754;47.700;7.924;2023-02-28T07:50:19;14.10;;;9.57;;
42614;SDS011;28754;47.700;7.924;2023-02-28T07:53:06;11.77;;;8.63;;
42614;SDS011;28754;47.700;7.924;2023-02-28T07:55:56;19.13;;;9.57;;
42614;SDS011;28754;47.700;7.924;2023-02-28T07:58:45;15.70;;;9.83;;
42614;SDS011;28754;47.700;7.924;2023-02-28T08:01:31;13.30;;;10.20;;
42614;SDS011;28754;47.700;7.924;2023-02-28T08:04:18;14.10;;;10.43;;
42614;SDS011;28754;47.700;7.924;2023-02-28T08:07:05;13.33;;;8.97;;
42614;SDS011;28754;47.700;7.924;2023-02-28T08:09:52;14.57;;;10.77;;
42614;SDS011;28754;47.700;7.924;2023-02-28T08:12:39;13.97;;;9.80;;
42614;SDS011;28754;47.700;7.924;2023-02-28T08:15:26;15.90;;;10.53;;
42614;SDS011;28754;47.700;7.924;2023-02-28T08:18:13;14.23;;;9.57;;
42614;SDS011;28754;47.700;7.924;2023-02-28T08:21:04;14.40;;;9.30;;
42614;SDS011;28754;47.700;7.924;2023-02-28T08:23:53;15.43;;;9.93;;
42614;SDS011;28754;47.700;7.924;2023-02-28T08:26:40;16.20;;;10.20;;
42614;SDS011;28754;47.700;7.924;2023-02-28T08:29:27;12.47;;;9.07;;
42614;SDS011;28754;47.700;7.924;2023-02-28T08:32:13;12.33;;;8.93;;
42614;SDS011;28754;47.700;7.924;2023-02-28T08:35:00;16.00;;;10.10;;
42614;SDS011;28754;47.700;7.924;2023-02-28T08:37:48;18.47;;;10.90;;
42614;SDS011;28754;47.700;7.924;2023-02-28T08:40:36;23.70;;;16.03;;
42614;SDS011;28754;47.700;7.924;2023-02-28T08:43:22;16.80;;;9.97;;
42614;SDS011;28754;47.700;7.924;2023-02-28T08:46:13;15.27;;;9.60;;
42614;SDS011;28754;47.700;7.924;2023-02-28T08:49:03;14.40;;;9.37;;
42614;SDS011;28754;47.700;7.924;2023-02-28T08:51:49;11.93;;;9.53;;
42614;SDS011;28754;47.700;7.924;2023-02-28T08:54:36;13.67;;;9.13;;
42614;SDS011;28754;47.700;7.924;2023-02-28T08:57:23;13.50;;;10.30;;
42614;SDS011;28754;47.700;7.924;2023-02-28T09:00:12;12.50;;;9.37;;
42614;SDS011;28754;47.700;7.924;2023-02-28T09:02:59;16.73;;;10.27;;
42614;SDS011;28754;47.700;7.924;2023-02-28T09:05:56;16.27;;;11.10;;
42614;SDS011;28754;47.700;7.924;2023-02-28T09:08:45;12.87;;;9.33;;
42614;SDS011;28754;47.700;7.924;2023-02-28T09:11:32;12.67;;;9.80;;
42614;SDS011;28754;47.700;7.924;2023-02-28T09:14:20;15.23;;;8.93;;
42614;SDS011;28754;47.700;7.924;2023-02-28T09:17:07;16.60;;;9.07;;
42614;SDS011;28754;47.700;7.924;2023-02-28T09:19:54;15.83;;;9.43;;
42614;SDS011;28754;47.700;7.924;2023-02-28T09:22:40;13.13;;;8.57;;
42614;SDS011;28754;47.700;7.924;2023-02-28T09:25:27;12.23;;;8.67;;
42614;SDS011;28754;47.700;7.924;2023-02-28T09:28:14;11.83;;;8.17;;
42614;SDS011;28754;47.700;7.924;2023-02-28T09:31:02;15.53;;;8.97;;
42614;SDS011;28754;47.700;7.924;2023-02-28T09:33:51;13.83;;;9.23;;
42614;SDS011;28754;47.700;7.924;2023-02-28T09:36:41;11.53;;;8.83;;
42614;SDS011;28754;47.700;7.924;2023-02-28T09:39:27;11.97;;;7.90;;
42614;SDS011;28754;47.700;7.924;2023-02-28T09:42:18;12.10;;;8.97;;
42614;SDS011;28754;47.700;7.924;2023-02-28T09:45:35;15.10;;;9.20;;
42614;SDS011;28754;47.700;7.924;2023-02-28T09:48:35;12.43;;;8.27;;
42614;SDS011;28754;47.700;7.924;2023-02-28T09:51:33;11.67;;;8.43;;
42614;SDS011;28754;47.700;7.924;2023-02-28T09:54:48;14.33;;;8.33;;
42614;SDS011;28754;47.700;7.924;2023-02-28T09:57:39;14.77;;;8.10;;
42614;SDS011;28754;47.700;7.924;2023-02-28T10:00:32;14.67;;;8.40;;
42614;SDS011;28754;47.700;7.924;2023-02-28T10:03:27;11.20;;;8.70;;
42614;SDS011;28754;47.700;7.924;2023-02-28T10:06:44;13.47;;;8.53;;
42614;SDS011;28754;47.700;7.924;2023-02-28T10:09:36;9.90;;;7.57;;
42614;SDS011;28754;47.700;7.924;2023-02-28T10:12:23;14.80;;;10.47;;
42614;SDS011;28754;47.700;7.924;2023-02-28T10:15:14;14.33;;;9.87;;
42614;SDS011;28754;47.700;7.924;2023-02-28T10:18:06;11.40;;;7.97;;
42614;SDS011;28754;47.700;7.924;2023-02-28T10:21:05;8.97;;;6.60;;
42614;SDS011;28754;47.700;7.924;2023-02-28T10:24:19;13.83;;;6.83;;
42614;SDS011;28754;47.700;7.924;2023-02-28T10:27:16;12.33;;;8.03;;
42614;SDS011;28754;47.700;7.924;2023-02-28T10:30:09;11.20;;;7.03;;
42614;SDS011;28754;47.700;7.924;2023-02-28T10:32:57;11.27;;;8.07;;
42614;SDS011;28754;47.700;7.924;2023-02-28T10:35:44;9.40;;;7.73;;
42614;SDS011;28754;47.700;7.924;2023-02-28T10:38:36;10.23;;;6.90;;
42614;SDS011;28754;47.700;7.924;2023-02-28T10:44:21;11.63;;;8.33;;
42614;SDS011;28754;47.700;7.924;2023-02-28T10:47:16;10.97;;;7.40;;
42614;SDS011;28754;47.700;7.924;2023-02-28T10:50:05;11.30;;;7.37;;
42614;SDS011;28754;47.700;7.924;2023-02-28T11:01:54;11.70;;;8.13;;
42614;SDS011;28754;47.700;7.924;2023-02-28T11:04:42;12.07;;;7.23;;
42614;SDS011;28754;47.700;7.924;2023-02-28T11:07:31;13.07;;;9.43;;
42614;SDS011;28754;47.700;7.924;2023-02-28T11:10:19;12.27;;;8.63;;
42614;SDS011;28754;47.700;7.924;2023-02-28T11:13:28;13.20;;;9.87;;
42614;SDS011;28754;47.700;7.924;2023-02-28T11:16:21;11.20;;;7.90;;
42614;SDS011;28754;47.700;7.924;2023-02-28T11:19:23;10.07;;;7.80;;
42614;SDS011;28754;47.700;7.924;2023-02-28T11:22:17;11.87;;;8.57;;
42614;SDS011;28754;47.700;7.924;2023-02-28T11:25:12;12.80;;;8.27;;
42614;SDS011;28754;47.700;7.924;2023-02-28T11:28:30;11.37;;;7.37;;
42614;SDS011;28754;47.700;7.924;2023-02-28T11:31:20;31.03;;;15.90;;
42614;SDS011;28754;47.700;7.924;2023-02-28T11:34:24;11.37;;;7.97;;
42614;SDS011;28754;47.700;7.924;2023-02-28T11:37:18;14.15;;;8.85;;
42614;SDS011;28754;47.700;7.924;2023-02-28T11:40:12;12.33;;;8.63;;
42614;SDS011;28754;47.700;7.924;2023-02-28T11:43:10;14.50;;;10.40;;
42614;SDS011;28754;47.700;7.924;2023-02-28T11:46:35;13.03;;;9.03;;
42614;SDS011;28754;47.700;7.924;2023-02-28T11:49:37;12.55;;;9.45;;
42614;SDS011;28754;47.700;7.924;2023-02-28T11:56:03;12.17;;;9.73;;
42614;SDS011;28754;47.700;7.924;2023-02-28T12:02:55;10.90;;;8.90;;
42614;SDS011;28754;47.700;7.924;2023-02-28T12:06:25;16.50;;;10.17;;
42614;SDS011;28754;47.700;7.924;2023-02-28T12:09:23;12.50;;;8.67;;
42614;SDS011;28754;47.700;7.924;2023-02-28T12:15:54;12.40;;;8.57;;
42614;SDS011;28754;47.700;7.924;2023-02-28T12:19:46;11.23;;;8.13;;
42614;SDS011;28754;47.700;7.924;2023-02-28T12:26:43;12.70;;;8.70;;
42614;SDS011;28754;47.700;7.924;2023-02-28T12:29:45;12.52;;;9.45;;
42614;SDS011;28754;47.700;7.924;2023-02-28T12:33:01;12.30;;;9.10;;
42614;SDS011;28754;47.700;7.924;2023-02-28T12:35:56;11.00;;;8.13;;
42614;SDS011;28754;47.700;7.924;2023-02-28T12:42:05;15.20;;;8.75;;
42614;SDS011;28754;47.700;7.924;2023-02-28T12:48:37;29.08;;;15.75;;
42614;SDS011;28754;47.700;7.924;2023-02-28T12:51:32;11.63;;;9.40;;
42614;SDS011;28754;47.700;7.924;2023-02-28T12:54:26;11.55;;;8.38;;
42614;SDS011;28754;47.700;7.924;2023-02-28T13:01:24;13.57;;;9.15;;
42614;SDS011;28754;47.700;7.924;2023-02-28T13:04:32;14.38;;;11.02;;
42614;SDS011;28754;47.700;7.924;2023-02-28T13:07:42;15.88;;;10.55;;
42614;SDS011;28754;47.700;7.924;2023-02-28T13:11:24;12.40;;;9.75;;
42614;SDS011;28754;47.700;7.924;2023-02-28T13:17:22;15.45;;;11.02;;
42614;SDS011;28754;47.700;7.924;2023-02-28T13:20:16;12.85;;;9.35;;
42614;SDS011;28754;47.700;7.924;2023-02-28T13:23:16;17.73;;;9.48;;
42614;SDS011;28754;47.700;7.924;2023-02-28T13:29:38;12.80;;;9.45;;
42614;SDS011;28754;47.700;7.924;2023-02-28T13:32:31;12.07;;;8.02;;
42614;SDS011;28754;47.700;7.924;2023-02-28T13:35:36;11.68;;;9.10;;
42614;SDS011;28754;47.700;7.924;2023-02-28T13:38:34;13.90;;;8.00;;
42614;SDS011;28754;47.700;7.924;2023-02-28T13:44:20;10.68;;;8.52;;
42614;SDS011;28754;47.700;7.924;2023-02-28T13:59:24;10.23;;;8.27;;
42614;SDS011;28754;47.700;7.924;2023-02-28T14:02:40;9.50;;;7.15;;
42614;SDS011;28754;47.700;7.924;2023-02-28T14:15:47;16.33;;;10.10;;
42614;SDS011;28754;47.700;7.924;2023-02-28T14:18:47;17.17;;;9.52;;
42614;SDS011;28754;47.700;7.924;2023-02-28T14:22:09;12.25;;;8.80;;
42614;SDS011;28754;47.700;7.924;2023-02-28T14:38:33;15.48;;;9.60;;
42614;SDS011;28754;47.700;7.924;2023-02-28T14:41:43;12.82;;;8.48;;
42614;SDS011;28754;47.700;7.924;2023-02-28T14:44:31;12.13;;;8.55;;
42614;SDS011;28754;47.700;7.924;2023-02-28T14:47:18;14.40;;;9.48;;
42614;SDS011;28754;47.700;7.924;2023-02-28T14:50:05;18.42;;;9.48;;
42614;SDS011;28754;47.700;7.924;2023-02-28T14:52:54;8.75;;;6.38;;
42614;SDS011;28754;47.700;7.924;2023-02-28T14:55:44;11.05;;;8.95;;
42614;SDS011;28754;47.700;7.924;2023-02-28T14:58:33;11.13;;;9.27;;
42614;SDS011;28754;47.700;7.924;2023-02-28T15:01:20;10.05;;;8.15;;
42614;SDS011;28754;47.700;7.924;2023-02-28T15:04:12;12.80;;;9.57;;
42614;SDS011;28754;47.700;7.924;2023-02-28T15:07:14;16.58;;;11.73;;
42614;SDS011;28754;47.700;7.924;2023-02-28T15:13:07;15.95;;;9.23;;
42614;SDS011;28754;47.700;7.924;2023-02-28T15:15:59;13.20;;;7.20;;
42614;SDS011;28754;47.700;7.924;2023-02-28T15:18:51;13.93;;;8.98;;
42614;SDS011;28754;47.700;7.924;2023-02-28T15:21:43;11.98;;;8.25;;
42614;SDS011;28754;47.700;7.924;2023-02-28T15:24:40;12.63;;;8.40;;
42614;SDS011;28754;47.700;7.924;2023-02-28T15:27:35;11.52;;;8.30;;
42614;SDS011;28754;47.700;7.924;2023-02-28T15:30:31;11.50;;;9.20;;
42614;SDS011;28754;47.700;7.924;2023-02-28T15:33:23;12.50;;;9.35;;
42614;SDS011;28754;47.700;7.924;2023-02-28T15:36:18;10.98;;;8.40;;
42614;SDS011;28754;47.700;7.924;2023-02-28T15:39:22;12.63;;;8.93;;
42614;SDS011;28754;47.700;7.924;2023-02-28T15:42:18;10.75;;;9.23;;
42614;SDS011;28754;47.700;7.924;2023-02-28T15:48:26;13.18;;;8.98;;
42614;SDS011;28754;47.700;7.924;2023-02-28T15:51:22;12.70;;;9.55;;
42614;SDS011;28754;47.700;7.924;2023-02-28T15:54:21;14.43;;;10.27;;
42614;SDS011;28754;47.700;7.924;2023-02-28T15:57:15;12.15;;;9.00;;
42614;SDS011;28754;47.700;7.924;2023-02-28T16:00:16;11.40;;;8.98;;
42614;SDS011;28754;47.700;7.924;2023-02-28T16:03:24;13.25;;;9.80;;
42614;SDS011;28754;47.700;7.924;2023-02-28T16:09:03;14.15;;;8.23;;
42614;SDS011;28754;47.700;7.924;2023-02-28T16:11:55;13.38;;;8.82;;
42614;SDS011;28754;47.700;7.924;2023-02-28T16:14:47;10.60;;;7.93;;
42614;SDS011;28754;47.700;7.924;2023-02-28T16:17:38;15.60;;;9.63;;
42614;SDS011;28754;47.700;7.924;2023-02-28T16:20:29;12.90;;;9.48;;
42614;SDS011;28754;47.700;7.924;2023-02-28T16:23:16;10.98;;;9.25;;
42614;SDS011;28754;47.700;7.924;2023-02-28T16:26:03;12.80;;;9.32;;
42614;SDS011;28754;47.700;7.924;2023-02-28T16:28:52;20.73;;;10.05;;
42614;SDS011;28754;47.700;7.924;2023-02-28T16:31:39;21.00;;;12.23;;
42614;SDS011;28754;47.700;7.924;2023-02-28T16:34:26;14.40;;;10.25;;
42614;SDS011;28754;47.700;7.924;2023-02-28T16:37:14;13.00;;;9.35;;
42614;SDS011;28754;47.700;7.924;2023-02-28T16:40:04;14.82;;;8.73;;
42614;SDS011;28754;47.700;7.924;2023-02-28T16:42:53;12.55;;;9.70;;
42614;SDS011;28754;47.700;7.924;2023-02-28T16:45:45;14.25;;;9.80;;
42614;SDS011;28754;47.700;7.924;2023-02-28T16:48:33;14.93;;;10.60;;
42614;SDS011;28754;47.700;7.924;2023-02-28T16:51:19;13.10;;;9.05;;
42614;SDS011;28754;47.700;7.924;2023-02-28T16:54:06;15.10;;;10.65;;
42614;SDS011;28754;47.700;7.924;2023-02-28T16:56:55;15.90;;;11.63;;
42614;SDS011;28754;47.700;7.924;2023-02-28T16:59:52;13.27;;;10.75;;
42614;SDS011;28754;47.700;7.924;2023-02-28T17:02:53;14.00;;;10.35;;
42614;SDS011;28754;47.700;7.924;2023-02-28T17:05:41;15.75;;;11.60;;
42614;SDS011;28754;47.700;7.924;2023-02-28T17:08:29;16.23;;;11.00;;
42614;SDS011;28754;47.700;7.924;2023-02-28T17:11:20;14.25;;;11.00;;
42614;SDS011;28754;47.700;7.924;2023-02-28T17:14:12;17.10;;;12.63;;
42614;SDS011;28754;47.700;7.924;2023-02-28T17:17:00;20.10;;;12.05;;
42614;SDS011;28754;47.700;7.924;2023-02-28T17:19:47;19.67;;;13.13;;
42614;SDS011;28754;47.700;7.924;2023-02-28T17:22:34;22.42;;;15.30;;
42614;SDS011;28754;47.700;7.924;2023-02-28T17:25:21;18.48;;;11.75;;
42614;SDS011;28754;47.700;7.924;2023-02-28T17:28:09;24.63;;;14.95;;
42614;SDS011;28754;47.700;7.924;2023-02-28T17:30:56;22.35;;;14.65;;
42614;SDS011;28754;47.700;7.924;2023-02-28T17:33:43;26.05;;;16.40;;
42614;SDS011;28754;47.700;7.924;2023-02-28T17:36:30;34.28;;;18.70;;
42614;SDS011;28754;47.700;7.924;2023-02-28T17:39:19;30.23;;;17.67;;
42614;SDS011;28754;47.700;7.924;2023-02-28T17:42:10;19.20;;;13.20;;
42614;SDS011;28754;47.700;7.924;2023-02-28T17:44:59;22.92;;;15.40;;
42614;SDS011;28754;47.700;7.924;2023-02-28T17:47:47;21.35;;;14.02;;
42614;SDS011;28754;47.700;7.924;2023-02-28T17:50:36;20.20;;;12.93;;
42614;SDS011;28754;47.700;7.924;2023-02-28T17:53:22;23.33;;;15.20;;
42614;SDS011;28754;47.700;7.924;2023-02-28T17:56:13;20.80;;;13.20;;
42614;SDS011;28754;47.700;7.924;2023-02-28T17:59:08;17.40;;;12.90;;
42614;SDS011;28754;47.700;7.924;2023-02-28T18:01:56;16.67;;;12.13;;
42614;SDS011;28754;47.700;7.924;2023-02-28T18:04:42;22.02;;;14.13;;
42614;SDS011;28754;47.700;7.924;2023-02-28T18:07:29;20.13;;;14.30;;
42614;SDS011;28754;47.700;7.924;2023-02-28T18:13:08;23.58;;;15.35;;
42614;SDS011;28754;47.700;7.924;2023-02-28T18:15:57;22.92;;;15.73;;
42614;SDS011;28754;47.700;7.924;2023-02-28T18:18:44;19.92;;;13.38;;
42614;SDS011;28754;47.700;7.924;2023-02-28T18:21:31;18.95;;;12.55;;
42614;SDS011;28754;47.700;7.924;2023-02-28T18:24:19;23.23;;;13.57;;
42614;SDS011;28754;47.700;7.924;2023-02-28T18:27:07;20.63;;;14.30;;
42614;SDS011;28754;47.700;7.924;2023-02-28T18:29:55;20.95;;;14.52;;
42614;SDS011;28754;47.700;7.924;2023-02-28T18:32:42;22.67;;;13.93;;
42614;SDS011;28754;47.700;7.924;2023-02-28T18:35:29;21.77;;;14.10;;
42614;SDS011;28754;47.700;7.924;2023-02-28T18:38:19;24.10;;;14.97;;
42614;SDS011;28754;47.700;7.924;2023-02-28T18:41:07;28.60;;;15.57;;
42614;SDS011;28754;47.700;7.924;2023-02-28T18:43:54;22.17;;;13.33;;
42614;SDS011;28754;47.700;7.924;2023-02-28T18:46:41;21.27;;;13.45;;
42614;SDS011;28754;47.700;7.924;2023-02-28T18:49:28;22.70;;;15.35;;
42614;SDS011;28754;47.700;7.924;2023-02-28T18:52:18;21.90;;;13.47;;
42614;SDS011;28754;47.700;7.924;2023-02-28T18:55:05;20.53;;;14.53;;
42614;SDS011;28754;47.700;7.924;2023-02-28T18:57:54;23.53;;;16.00;;
42614;SDS011;28754;47.700;7.924;2023-02-28T19:00:40;24.17;;;14.67;;
42614;SDS011;28754;47.700;7.924;2023-02-28T19:03:28;21.10;;;13.23;;
42614;SDS011;28754;47.700;7.924;2023-02-28T19:06:16;20.60;;;13.63;;
42614;SDS011;28754;47.700;7.924;2023-02-28T19:09:04;19.77;;;14.50;;
42614;SDS011;28754;47.700;7.924;2023-02-28T19:11:51;21.50;;;14.83;;